Aérodrome :
LOGIN :

S'inscrire | Disclaimer

   EN    FR    IT 

 










Légende :    VFR   VFR Marginal   IFR   IFR Intensif   IFR Très Intensif
Visi : 
Plafond : 
>= 8 km
>= 3000ft
5 à 8 km
1000 à 3000 ft
1500m à 5 km
500 à 1000 ft
800 à 1500m
200 à 500 ft
< 800m
< 200 ft
Symboles :   Orages  Brouillard  Fortes neiges  Fortes précipitations  Vent > 20 kt
SIGMETs :   Divers  Orages  Givrage  Turbulence  Onde Orograph.  Cendres Volcan.






- Altitude de l'aérodrome : 76 ft
- Code IATA : KID


ESMK - Kristianstad

DERNIER METAR :
  • 200120Z AUTO 18005KT 9999 BKN020/// 06/05 Q1019

METARs EXPIRÉS :
  • 200050Z AUTO 19005KT 9999 OVC020/// 07/06 Q1019
  • 200020Z AUTO 16006KT 9999 OVC021/// 07/06 Q1019
  • 192350Z AUTO 17005KT 9999 FEW014/// BKN024/// 07/06 Q1019
  • 192320Z AUTO 19006KT 9999 FEW011/// SCT014/// BKN017/// 07/06 Q1018
  • 192250Z AUTO 18006KT 9999 FEW014/// OVC027/// 07/06 Q1018

Prévision TAF périmée.



MET'MAP, la Météo Aéronautique d'un coup d'oeil ! - Copyright ORBIFLY Décembre 2007 - Disclaimer

ORBIFLY MET'MAP TEAM :

Programmation & Développement : Alexandra Zaïnal
Conception & Développement : Baudouin d'Aumeries
Co-Programmation & Développement : Marc-Olivier Méhu
Soutien technique & logistique : Manuel Goepfert

Contact : metmap@orbifly.com




SOURCES & CREDITS :

   NOAA